createdAt,value
2022-09-25T00:00:41.079Z,15.90
2022-09-25T00:03:14.974Z,15.82
2022-09-25T00:05:49.397Z,16.48
2022-09-25T00:08:21.051Z,17.00
2022-09-25T00:10:52.694Z,17.67
2022-09-25T00:13:24.305Z,16.38
2022-09-25T00:15:57.375Z,17.35
2022-09-25T00:18:55.678Z,17.80
2022-09-25T00:21:31.112Z,14.95
2022-09-25T00:24:13.187Z,15.10
2022-09-25T00:26:44.930Z,15.90
2022-09-25T00:29:20.422Z,16.38
2022-09-25T00:31:58.177Z,16.25
2022-09-25T00:34:32.291Z,15.90
2022-09-25T00:37:04.520Z,16.50
2022-09-25T00:39:42.178Z,15.77
2022-09-25T00:42:19.250Z,16.88
2022-09-25T00:44:58.913Z,17.08
2022-09-25T00:48:03.193Z,16.67
2022-09-25T00:50:52.474Z,16.58
2022-09-25T00:53:31.566Z,16.48
2022-09-25T00:56:05.226Z,15.90
2022-09-25T00:58:40.344Z,16.77
2022-09-25T01:01:12.227Z,16.20
2022-09-25T01:03:46.610Z,16.88
2022-09-25T01:06:18.750Z,17.13
2022-09-25T01:08:57.678Z,15.98
2022-09-25T01:11:31.097Z,16.77
2022-09-25T01:14:05.955Z,16.67
2022-09-25T01:16:52.004Z,16.77
2022-09-25T01:19:40.959Z,16.88
2022-09-25T01:22:46.364Z,16.30
2022-09-25T01:25:23.959Z,17.05
2022-09-25T01:28:39.560Z,16.08
2022-09-25T01:31:22.246Z,19.27
2022-09-25T01:34:03.911Z,19.17
2022-09-25T01:36:41.659Z,20.67
2022-09-25T01:39:32.464Z,18.27
2022-09-25T01:42:23.694Z,17.27
2022-09-25T01:45:04.238Z,20.65
2022-09-25T01:47:41.720Z,17.75
2022-09-25T01:50:28.642Z,17.65
2022-09-25T01:53:07.409Z,18.63
2022-09-25T01:55:49.218Z,19.67
2022-09-25T01:58:35.702Z,20.80
2022-09-25T02:01:18.055Z,20.17
2022-09-25T02:04:04.733Z,21.08
2022-09-25T02:06:38.496Z,21.27
2022-09-25T02:09:19.041Z,20.00
2022-09-25T02:11:56.352Z,21.33
2022-09-25T02:14:40.152Z,19.75
2022-09-25T02:17:34.985Z,21.25
2022-09-25T02:20:26.585Z,21.33
2022-09-25T02:23:23.659Z,19.75
2022-09-25T02:26:08.654Z,20.20
2022-09-25T02:28:45.643Z,20.52
2022-09-25T02:31:19.516Z,20.20
2022-09-25T02:33:51.527Z,20.48
2022-09-25T02:36:24.130Z,21.20
2022-09-25T02:38:56.320Z,19.67
2022-09-25T02:41:43.828Z,18.83
2022-09-25T02:44:33.639Z,18.92
2022-09-25T02:47:43.643Z,19.05
2022-09-25T02:50:37.271Z,18.65
2022-09-25T02:53:20.839Z,18.45
2022-09-25T02:56:35.182Z,18.27
2022-09-25T02:59:34.167Z,19.23
2022-09-25T03:02:08.996Z,19.33
2022-09-25T03:04:42.418Z,19.98
2022-09-25T03:07:15.898Z,19.88
2022-09-25T03:09:54.994Z,19.83
2022-09-25T03:12:28.618Z,19.65
2022-09-25T03:15:00.219Z,18.98
2022-09-25T03:17:33.680Z,18.38
2022-09-25T03:20:07.128Z,17.02
2022-09-25T03:22:39.636Z,18.92
2022-09-25T03:25:11.209Z,19.05
2022-09-25T03:27:46.858Z,19.25
2022-09-25T03:30:18.796Z,18.85
2022-09-25T03:32:50.425Z,18.35
2022-09-25T03:35:22.067Z,18.02
2022-09-25T03:38:00.501Z,17.63
2022-09-25T03:40:35.215Z,17.45
2022-09-25T03:45:41.904Z,18.67
2022-09-25T03:48:13.550Z,19.00
2022-09-25T03:50:46.171Z,18.27
2022-09-25T03:53:20.649Z,17.95
2022-09-25T03:55:52.604Z,19.20
2022-09-25T03:58:25.292Z,17.48
2022-09-25T04:00:57.740Z,17.30
2022-09-25T04:03:32.836Z,17.70
2022-09-25T04:06:05.881Z,17.85
2022-09-25T04:08:38.162Z,17.13
2022-09-25T04:11:10.799Z,18.23
2022-09-25T04:13:43.599Z,16.52
2022-09-25T04:16:21.697Z,18.05
2022-09-25T04:18:53.375Z,17.67
2022-09-25T04:21:50.002Z,17.75
2022-09-25T04:24:40.113Z,18.90
2022-09-25T04:27:11.704Z,19.27
2022-09-25T04:29:43.444Z,18.58
2022-09-25T04:32:35.011Z,19.25
2022-09-25T04:35:09.774Z,18.95
2022-09-25T04:37:41.405Z,18.98
2022-09-25T04:40:13.103Z,19.45
2022-09-25T04:42:44.749Z,18.65
2022-09-25T04:45:16.395Z,17.65
2022-09-25T04:47:47.993Z,18.27
2022-09-25T04:50:23.246Z,17.83
2022-09-25T04:52:57.198Z,18.90
2022-09-25T04:55:29.272Z,19.77
2022-09-25T04:58:04.388Z,19.05
2022-09-25T05:00:37.512Z,18.05
2022-09-25T05:03:09.470Z,18.75
2022-09-25T05:05:41.245Z,18.38
2022-09-25T05:08:12.894Z,20.00
2022-09-25T05:10:44.637Z,19.67
2022-09-25T05:13:16.227Z,18.80
2022-09-25T05:15:47.898Z,18.92
2022-09-25T05:18:24.885Z,18.20
2022-09-25T05:20:58.030Z,19.80
2022-09-25T05:23:32.785Z,18.33
2022-09-25T05:28:38.958Z,18.58
2022-09-25T05:33:46.327Z,19.60
2022-09-25T05:36:19.096Z,19.75
2022-09-25T05:38:50.942Z,17.98
2022-09-25T05:41:24.650Z,19.88
2022-09-25T05:43:57.493Z,19.63
2022-09-25T05:46:29.111Z,19.35
2022-09-25T05:49:01.233Z,18.05
2022-09-25T05:51:32.985Z,18.08
2022-09-25T05:54:05.000Z,17.95
2022-09-25T05:56:39.607Z,18.15
2022-09-25T06:01:43.012Z,15.77
2022-09-25T06:04:14.635Z,16.73
2022-09-25T06:06:46.350Z,15.85
2022-09-25T06:09:23.441Z,15.43
2022-09-25T06:11:57.186Z,15.65
2022-09-25T06:14:28.898Z,14.93
2022-09-25T06:20:00.570Z,14.68
2022-09-25T06:22:32.953Z,14.18
2022-09-25T06:25:05.300Z,13.02
2022-09-25T06:27:40.576Z,14.45
2022-09-25T06:30:12.528Z,15.35
2022-09-25T06:32:44.413Z,14.63
2022-09-25T06:35:18.335Z,13.38
2022-09-25T06:37:58.261Z,14.13
2022-09-25T06:40:31.612Z,13.05
2022-09-25T06:43:04.687Z,13.27
2022-09-25T06:45:39.446Z,13.27
2022-09-25T06:48:16.295Z,13.13
2022-09-25T06:50:55.189Z,12.55
2022-09-25T06:53:27.129Z,12.63
2022-09-25T06:55:59.965Z,12.50
2022-09-25T06:58:31.691Z,12.13
2022-09-25T07:01:09.109Z,11.10
2022-09-25T07:03:51.182Z,10.25
2022-09-25T07:06:26.568Z,11.30
2022-09-25T07:08:58.270Z,11.75
2022-09-25T07:11:31.378Z,11.55
2022-09-25T07:14:04.182Z,12.75
2022-09-25T07:16:36.227Z,11.43
2022-09-25T07:19:09.344Z,11.63
2022-09-25T07:21:41.039Z,11.20
2022-09-25T07:24:12.744Z,10.85
2022-09-25T07:26:44.555Z,10.75
2022-09-25T07:29:16.474Z,10.70
2022-09-25T07:31:48.118Z,10.50
2022-09-25T07:34:19.916Z,9.90
2022-09-25T07:36:53.017Z,9.90
2022-09-25T07:39:24.770Z,10.07
2022-09-25T07:41:56.445Z,9.77
2022-09-25T07:44:29.404Z,9.98
2022-09-25T07:47:08.803Z,9.25
2022-09-25T07:49:41.349Z,9.60
2022-09-25T07:52:13.899Z,10.27
2022-09-25T07:54:45.555Z,10.00
2022-09-25T07:57:20.756Z,9.90
2022-09-25T07:59:52.415Z,9.73
2022-09-25T08:02:24.521Z,10.07
2022-09-25T08:04:56.355Z,10.05
2022-09-25T08:07:28.596Z,8.35
2022-09-25T08:10:00.510Z,9.07
2022-09-25T08:12:32.220Z,8.13
2022-09-25T08:15:04.279Z,8.15
2022-09-25T08:17:36.070Z,8.75
2022-09-25T08:20:08.377Z,7.97
2022-09-25T08:22:39.958Z,9.25
2022-09-25T08:25:13.125Z,9.25
2022-09-25T08:27:45.607Z,8.32
2022-09-25T08:30:17.963Z,8.07
2022-09-25T08:32:50.615Z,8.40
2022-09-25T08:35:22.385Z,8.52
2022-09-25T08:37:57.859Z,7.97
2022-09-25T08:40:39.881Z,8.40
2022-09-25T08:43:22.023Z,9.15
2022-09-25T08:46:16.587Z,9.40
2022-09-25T08:49:10.113Z,9.10
2022-09-25T08:51:48.829Z,8.77
2022-09-25T08:54:26.703Z,7.60
2022-09-25T08:57:35.168Z,9.05
2022-09-25T09:00:17.347Z,8.93
2022-09-25T09:02:54.682Z,8.38
2022-09-25T09:05:32.516Z,9.13
2022-09-25T09:08:09.726Z,8.85
2022-09-25T09:10:45.824Z,8.48
2022-09-25T09:13:24.708Z,7.50
2022-09-25T09:16:01.493Z,8.25
2022-09-25T09:18:39.567Z,8.73
2022-09-25T09:21:18.810Z,9.15
2022-09-25T09:24:06.206Z,8.95
2022-09-25T09:26:56.897Z,9.70
2022-09-25T09:29:55.052Z,8.73
2022-09-25T09:32:48.656Z,9.40
2022-09-25T09:35:53.621Z,8.52
2022-09-25T09:39:08.929Z,8.38
2022-09-25T09:44:37.117Z,8.60
2022-09-25T09:48:02.142Z,8.90
2022-09-25T09:50:53.178Z,8.82
2022-09-25T09:54:11.349Z,8.55
2022-09-25T09:56:47.808Z,8.07
2022-09-25T09:59:25.663Z,7.70
2022-09-25T10:02:13.748Z,7.40
2022-09-25T10:04:46.932Z,8.27
2022-09-25T10:07:22.893Z,8.68
2022-09-25T10:09:55.725Z,8.70
2022-09-25T10:12:36.034Z,7.50
2022-09-25T10:15:18.834Z,8.15
2022-09-25T10:17:50.875Z,7.78
2022-09-25T10:20:23.758Z,8.20
2022-09-25T10:22:56.655Z,7.85
2022-09-25T10:25:40.335Z,7.43
2022-09-25T10:28:32.769Z,8.23
2022-09-25T10:31:09.001Z,7.47
2022-09-25T10:33:40.733Z,8.73
2022-09-25T10:36:12.357Z,8.55
2022-09-25T10:38:43.879Z,6.72
2022-09-25T10:41:19.976Z,6.93
2022-09-25T10:43:53.787Z,7.45
2022-09-25T10:46:55.076Z,7.05
2022-09-25T10:49:46.954Z,6.72
2022-09-25T10:52:22.322Z,6.72
2022-09-25T10:55:14.764Z,6.70
2022-09-25T10:57:48.007Z,7.22
2022-09-25T11:00:24.450Z,7.30
2022-09-25T11:03:01.683Z,7.30
2022-09-25T11:05:38.402Z,6.38
2022-09-25T11:08:16.277Z,6.68
2022-09-25T11:10:57.049Z,6.57
2022-09-25T11:13:37.044Z,6.63
2022-09-25T11:16:10.320Z,6.53
2022-09-25T11:19:29.050Z,6.22
2022-09-25T11:22:08.042Z,6.32
2022-09-25T11:25:02.265Z,6.20
2022-09-25T11:27:43.732Z,6.65
2022-09-25T11:30:18.496Z,7.13
2022-09-25T11:32:58.434Z,7.28
2022-09-25T11:35:53.163Z,7.50
2022-09-25T11:38:52.337Z,6.72
2022-09-25T11:41:45.703Z,6.57
2022-09-25T11:44:31.478Z,6.32
2022-09-25T11:47:27.733Z,6.10
2022-09-25T11:50:02.246Z,6.50
2022-09-25T11:52:46.059Z,6.30
2022-09-25T11:55:45.862Z,6.70
2022-09-25T11:58:26.701Z,6.47
2022-09-25T12:01:16.878Z,5.40
2022-09-25T12:04:00.429Z,5.20
2022-09-25T12:06:53.268Z,5.90
2022-09-25T12:09:54.597Z,6.35
2022-09-25T12:12:35.310Z,5.85
2022-09-25T12:15:45.503Z,6.60
2022-09-25T12:18:22.703Z,6.05
2022-09-25T12:21:20.134Z,6.25
2022-09-25T12:24:07.919Z,6.85
2022-09-25T12:27:01.035Z,6.40
2022-09-25T12:29:39.856Z,6.88
2022-09-25T12:32:32.501Z,6.85
2022-09-25T12:35:29.510Z,7.07
2022-09-25T12:38:17.805Z,6.78
2022-09-25T12:41:01.156Z,6.40
2022-09-25T12:43:45.390Z,6.88
2022-09-25T12:46:39.196Z,6.47
2022-09-25T12:49:21.303Z,6.00
2022-09-25T12:51:59.678Z,6.25
2022-09-25T12:54:43.805Z,6.60
2022-09-25T12:57:26.361Z,6.80
2022-09-25T13:00:01.895Z,6.38
2022-09-25T13:02:40.968Z,6.72
2022-09-25T13:05:31.829Z,6.40
2022-09-25T13:08:25.711Z,6.90
2022-09-25T13:11:07.825Z,6.28
2022-09-25T13:13:47.235Z,6.25
2022-09-25T13:16:19.048Z,6.35
2022-09-25T13:19:12.877Z,6.32
2022-09-25T13:21:44.500Z,6.07
2022-09-25T13:24:17.630Z,5.93
2022-09-25T13:26:55.154Z,6.60
2022-09-25T13:29:31.229Z,6.40
2022-09-25T13:32:23.170Z,6.18
2022-09-25T13:34:58.543Z,6.85
2022-09-25T13:37:39.247Z,6.57
2022-09-25T13:40:46.102Z,5.60
2022-09-25T13:43:27.907Z,5.20
2022-09-25T13:46:19.291Z,4.57
2022-09-25T13:48:55.763Z,5.43
2022-09-25T13:51:35.517Z,4.28
2022-09-25T13:54:09.806Z,4.82
2022-09-25T13:56:41.366Z,4.97
2022-09-25T13:59:13.860Z,4.60
2022-09-25T14:01:53.942Z,4.70
2022-09-25T14:04:36.635Z,5.93
2022-09-25T14:07:25.417Z,5.38
2022-09-25T14:10:00.324Z,5.00
2022-09-25T14:12:42.639Z,5.28
2022-09-25T14:15:22.818Z,5.25
2022-09-25T14:17:57.532Z,4.95
2022-09-25T14:20:29.098Z,5.45
2022-09-25T14:23:11.955Z,5.70
2022-09-25T14:25:46.819Z,4.53
2022-09-25T14:28:30.542Z,5.05
2022-09-25T14:31:31.847Z,4.72
2022-09-25T14:34:21.884Z,4.15
2022-09-25T14:37:15.682Z,4.13
2022-09-25T14:39:54.239Z,4.35
2022-09-25T14:42:45.799Z,4.30
2022-09-25T14:45:35.657Z,4.10
2022-09-25T14:48:31.758Z,4.13
2022-09-25T14:51:25.503Z,3.75
2022-09-25T14:54:02.485Z,4.22
2022-09-25T14:56:36.898Z,4.13
2022-09-25T15:01:49.522Z,3.70
2022-09-25T15:04:32.368Z,3.72
2022-09-25T15:07:23.867Z,3.63
2022-09-25T15:09:56.096Z,3.58
2022-09-25T15:12:33.900Z,3.40
2022-09-25T15:15:13.858Z,3.47
2022-09-25T15:17:50.881Z,3.22
2022-09-25T15:20:27.149Z,3.75
2022-09-25T15:23:03.756Z,3.25
2022-09-25T15:25:47.468Z,3.22
2022-09-25T15:28:25.397Z,3.17
2022-09-25T15:31:03.746Z,3.65
2022-09-25T15:33:38.341Z,3.75
2022-09-25T15:36:22.249Z,3.65
2022-09-25T15:39:09.039Z,3.83
2022-09-25T15:41:45.019Z,4.00
2022-09-25T15:44:25.168Z,4.40
2022-09-25T15:47:00.701Z,4.30
2022-09-25T15:49:43.803Z,4.57
2022-09-25T15:52:32.689Z,5.00
2022-09-25T15:55:14.770Z,5.07
2022-09-25T15:57:51.555Z,4.88
2022-09-25T16:00:44.272Z,5.47
2022-09-25T16:03:43.741Z,5.05
2022-09-25T16:06:16.760Z,6.45
2022-09-25T16:08:48.388Z,5.38
2022-09-25T16:11:26.637Z,6.65
2022-09-25T16:14:29.340Z,6.55
2022-09-25T16:17:01.062Z,6.10
2022-09-25T16:19:34.113Z,6.43
2022-09-25T16:22:23.272Z,6.60
2022-09-25T16:24:55.282Z,6.28
2022-09-25T16:27:32.686Z,7.00
2022-09-25T16:30:09.137Z,7.35
2022-09-25T16:32:48.063Z,6.60
2022-09-25T16:35:57.465Z,6.43
2022-09-25T17:17:32.605Z,7.45
2022-09-25T17:20:04.729Z,7.82
2022-09-25T17:26:10.900Z,8.02
2022-09-25T17:28:42.866Z,7.85
2022-09-25T17:31:16.855Z,8.98
2022-09-25T17:33:50.200Z,8.18
2022-09-25T17:36:22.016Z,7.95
2022-09-25T17:38:53.632Z,7.60
2022-09-25T17:41:36.286Z,8.20
2022-09-25T17:44:13.698Z,8.02
2022-09-25T17:46:45.819Z,8.35
2022-09-25T17:49:18.257Z,7.57
2022-09-25T17:51:50.507Z,7.82
2022-09-25T17:54:22.114Z,8.13
2022-09-25T17:56:53.740Z,10.23
2022-09-25T17:59:25.471Z,9.43
2022-09-25T18:02:01.622Z,8.82
2022-09-25T18:04:33.217Z,9.15
2022-09-25T18:07:06.604Z,9.00
2022-09-25T18:09:38.338Z,9.25
2022-09-25T18:12:12.625Z,8.77
2022-09-25T18:14:45.841Z,10.38
2022-09-25T18:17:17.486Z,9.48
2022-09-25T18:20:09.075Z,9.40
2022-09-25T18:22:41.427Z,9.65
2022-09-25T18:25:13.211Z,8.75
2022-09-25T18:27:45.091Z,9.35
2022-09-25T18:30:21.838Z,8.63
2022-09-25T18:32:53.714Z,9.27
2022-09-25T18:35:25.997Z,10.10
2022-09-25T18:37:59.390Z,11.07
2022-09-25T18:40:31.240Z,9.60
2022-09-25T18:43:02.989Z,10.48
2022-09-25T18:45:35.694Z,9.98
2022-09-25T18:48:08.199Z,9.93
2022-09-25T18:50:45.872Z,10.63
2022-09-25T18:53:20.949Z,11.05
2022-09-25T18:55:58.182Z,10.60
2022-09-25T18:59:00.252Z,11.63
2022-09-25T19:01:32.304Z,12.55
2022-09-25T19:04:07.652Z,10.75
2022-09-25T19:06:43.106Z,12.73
2022-09-25T19:11:49.342Z,14.35
2022-09-25T19:14:22.089Z,14.55
2022-09-25T19:16:53.852Z,13.60
2022-09-25T19:19:25.847Z,13.05
2022-09-25T19:21:57.418Z,12.15
2022-09-25T19:24:30.747Z,12.35
2022-09-25T19:27:12.320Z,11.18
2022-09-25T19:29:47.612Z,11.07
2022-09-25T19:32:19.613Z,11.45
2022-09-25T19:34:51.894Z,12.25
2022-09-25T19:37:26.336Z,11.60
2022-09-25T19:40:16.996Z,11.90
2022-09-25T19:42:49.891Z,11.18
2022-09-25T19:45:22.349Z,11.45
2022-09-25T19:47:54.009Z,11.02
2022-09-25T19:50:25.824Z,10.60
2022-09-25T19:52:57.463Z,12.65
2022-09-25T19:55:36.990Z,9.75
2022-09-25T19:58:10.224Z,10.30
2022-09-25T20:00:42.481Z,10.18
2022-09-25T20:03:14.434Z,11.50
2022-09-25T20:05:48.901Z,10.02
2022-09-25T20:08:21.246Z,9.40
2022-09-25T20:10:52.937Z,9.40
2022-09-25T20:13:30.224Z,10.13
2022-09-25T20:16:14.395Z,10.02
2022-09-25T20:19:03.050Z,10.45
2022-09-25T20:21:37.261Z,10.90
2022-09-25T20:24:10.045Z,10.15
2022-09-25T20:26:41.826Z,9.60
2022-09-25T20:29:15.496Z,11.27
2022-09-25T20:31:51.176Z,10.37
2022-09-25T20:34:24.798Z,10.50
2022-09-25T20:36:56.938Z,11.20
2022-09-25T20:39:28.514Z,10.70
2022-09-25T20:42:00.144Z,10.80
2022-09-25T20:44:31.760Z,10.20
2022-09-25T20:47:03.376Z,11.65
2022-09-25T20:49:36.147Z,12.05
2022-09-25T20:52:09.748Z,11.82
2022-09-25T20:54:41.758Z,11.70
2022-09-25T20:57:13.415Z,12.32
2022-09-25T20:59:45.006Z,12.20
2022-09-25T21:02:16.789Z,11.30
2022-09-25T21:04:50.929Z,10.50
2022-09-25T21:07:25.692Z,8.40
2022-09-25T21:09:57.299Z,7.50
2022-09-25T21:12:28.976Z,6.68
2022-09-25T21:15:03.377Z,7.20
2022-09-25T21:17:35.584Z,6.82
2022-09-25T21:20:07.573Z,8.05
2022-09-25T21:22:40.247Z,7.20
2022-09-25T21:25:11.956Z,7.72
2022-09-25T21:27:43.571Z,7.18
2022-09-25T21:30:15.565Z,8.02
2022-09-25T21:32:47.493Z,7.47
2022-09-25T21:35:19.282Z,7.70
2022-09-25T21:37:50.895Z,8.35
2022-09-25T21:40:22.559Z,7.20
2022-09-25T21:42:55.279Z,7.93
2022-09-25T21:45:31.488Z,7.88
2022-09-25T21:48:03.138Z,7.63
2022-09-25T21:50:34.705Z,7.70
2022-09-25T21:53:06.362Z,7.38
2022-09-25T21:55:37.956Z,8.52
2022-09-25T21:58:09.575Z,7.85
2022-09-25T22:00:41.773Z,8.23
2022-09-25T22:03:13.425Z,7.90
2022-09-25T22:05:45.046Z,7.82
2022-09-25T22:08:16.637Z,8.00
2022-09-25T22:10:58.345Z,8.05
2022-09-25T22:13:33.809Z,7.57
2022-09-25T22:16:13.578Z,8.65
2022-09-25T22:18:49.844Z,8.93
2022-09-25T22:21:26.450Z,8.02
2022-09-25T22:23:59.353Z,8.35
2022-09-25T22:26:36.298Z,8.75
2022-09-25T22:29:08.527Z,8.98
2022-09-25T22:31:43.442Z,8.98
2022-09-25T22:34:22.366Z,8.85
2022-09-25T22:36:59.501Z,9.32
2022-09-25T22:39:31.337Z,9.07
2022-09-25T22:42:04.378Z,9.60
2022-09-25T22:44:37.122Z,9.30
2022-09-25T22:47:09.489Z,9.35
2022-09-25T22:49:41.403Z,9.57
2022-09-25T22:52:13.354Z,10.60
2022-09-25T22:54:46.965Z,10.70
2022-09-25T22:57:18.595Z,11.82
2022-09-25T22:59:50.216Z,12.00
2022-09-25T23:02:21.802Z,11.93
2022-09-25T23:04:54.284Z,11.07
2022-09-25T23:07:25.994Z,11.73
2022-09-25T23:09:57.613Z,12.02
2022-09-25T23:12:30.861Z,12.23
2022-09-25T23:15:03.658Z,11.93
2022-09-25T23:17:38.638Z,12.30
2022-09-25T23:20:10.313Z,12.98
2022-09-25T23:22:41.881Z,12.75
2022-09-25T23:25:16.310Z,12.80
2022-09-25T23:27:47.914Z,12.68
2022-09-25T23:30:19.704Z,12.30
2022-09-25T23:32:51.355Z,11.75
2022-09-25T23:35:25.323Z,12.05
2022-09-25T23:37:57.087Z,11.60
2022-09-25T23:40:29.223Z,13.65
2022-09-25T23:43:01.965Z,12.43
2022-09-25T23:45:33.970Z,12.52
2022-09-25T23:48:09.521Z,12.43
2022-09-25T23:50:43.871Z,12.50
2022-09-25T23:53:15.696Z,12.13
2022-09-25T23:55:47.373Z,11.80
2022-09-25T23:58:19.001Z,11.88
